createdAt,value
2022-12-03T00:05:49.180Z,101817.38
2022-12-03T00:15:50.879Z,101813.88
2022-12-03T00:25:52.357Z,101811.41
2022-12-03T00:35:53.704Z,101808.84
2022-12-03T00:45:55.091Z,101807.25
2022-12-03T00:55:56.418Z,101812.94
2022-12-03T01:05:57.811Z,101827.00
2022-12-03T01:15:59.195Z,101822.78
2022-12-03T01:26:00.581Z,101814.75
2022-12-03T01:36:01.961Z,101816.66
2022-12-03T01:46:04.092Z,101817.88
2022-12-03T01:56:05.916Z,101811.47
2022-12-03T02:06:16.406Z,101806.53
2022-12-03T02:16:17.914Z,101794.47
2022-12-03T02:26:19.404Z,101794.47
2022-12-03T02:36:21.147Z,101784.44
2022-12-03T02:46:22.532Z,101772.47
2022-12-03T02:56:28.915Z,101785.81
2022-12-03T03:06:30.844Z,101774.13
2022-12-03T03:16:34.422Z,101766.47
2022-12-03T03:26:36.193Z,101761.38
2022-12-03T03:36:38.159Z,101758.75
2022-12-03T03:46:40.319Z,101760.28
2022-12-03T03:56:41.919Z,101753.38
2022-12-03T04:06:43.270Z,101734.34
2022-12-03T04:16:44.647Z,101750.72
2022-12-03T04:27:04.459Z,101747.00
2022-12-03T04:37:05.912Z,101740.16
2022-12-03T04:47:21.415Z,101733.16
2022-12-03T04:57:22.760Z,101736.72
2022-12-03T05:07:24.186Z,101744.22
2022-12-03T05:17:25.598Z,101734.09
2022-12-03T05:27:27.047Z,101721.25
2022-12-03T05:37:28.412Z,101732.34
2022-12-03T05:47:29.740Z,101738.88
2022-12-03T05:57:31.112Z,101731.84
2022-12-03T06:07:32.483Z,101726.84
2022-12-03T06:17:33.856Z,101714.84
2022-12-03T06:27:35.388Z,101714.25
2022-12-03T06:37:36.716Z,101719.47
2022-12-03T06:47:53.096Z,101712.81
2022-12-03T06:57:54.451Z,101711.25
2022-12-03T07:07:55.810Z,101716.53
2022-12-03T07:17:57.184Z,101712.72
2022-12-03T07:27:58.528Z,101710.25
2022-12-03T07:37:59.883Z,101712.72
2022-12-03T07:48:01.223Z,101713.91
2022-12-03T07:58:02.916Z,101715.97
2022-12-03T08:08:04.597Z,101713.84
2022-12-03T08:18:32.668Z,101710.66
2022-12-03T08:28:34.090Z,101717.22
2022-12-03T08:38:35.458Z,101718.31
2022-12-03T08:48:39.271Z,101718.31
2022-12-03T08:58:44.560Z,101717.69
2022-12-03T09:08:46.175Z,101729.78
2022-12-03T09:18:47.532Z,101718.41
2022-12-03T09:28:48.966Z,101728.09
2022-12-03T09:38:50.335Z,101728.09
2022-12-03T09:48:51.986Z,101702.66
2022-12-03T09:58:53.478Z,101711.66
2022-12-03T10:08:55.574Z,101691.81
2022-12-03T10:19:00.466Z,101689.69
2022-12-03T10:29:01.800Z,101681.69
2022-12-03T10:39:15.175Z,101664.91
2022-12-03T10:49:18.653Z,101637.88
2022-12-03T10:59:23.301Z,101640.50
2022-12-03T11:09:33.287Z,101620.22
2022-12-03T11:19:46.722Z,101608.34
2022-12-03T11:29:51.133Z,101599.94
2022-12-03T11:39:53.142Z,101600.09
2022-12-03T11:49:55.274Z,101591.72
2022-12-03T12:00:03.250Z,101591.75
2022-12-03T12:10:05.355Z,101572.22
2022-12-03T12:20:26.588Z,101563.13
2022-12-03T12:30:27.948Z,101554.38
2022-12-03T12:40:31.229Z,101537.31
2022-12-03T12:50:33.156Z,101531.34
2022-12-03T13:00:34.529Z,101532.34
2022-12-03T13:10:40.735Z,101527.56
2022-12-03T13:20:42.343Z,101531.25
2022-12-03T13:30:43.708Z,101520.09
2022-12-03T13:40:45.133Z,101502.34
2022-12-03T13:50:46.533Z,101497.09
2022-12-03T14:00:47.968Z,101485.31
2022-12-03T14:10:49.503Z,101488.75
2022-12-03T14:20:51.076Z,101483.66
2022-12-03T14:30:52.436Z,101490.22
2022-12-03T14:40:53.831Z,101479.81
2022-12-03T14:50:55.181Z,101488.56
2022-12-03T15:00:56.541Z,101482.50
2022-12-03T15:10:57.922Z,101472.91
2022-12-03T15:20:59.263Z,101475.13
2022-12-03T15:31:01.054Z,101489.59
2022-12-03T15:41:40.695Z,101472.31
2022-12-03T15:51:42.088Z,101465.72
2022-12-03T16:01:43.477Z,101482.63
2022-12-03T16:11:44.915Z,101480.81
2022-12-03T16:21:46.633Z,101476.31
2022-12-03T16:31:47.995Z,101472.00
2022-12-03T16:41:49.334Z,101460.06
2022-12-03T16:51:50.691Z,101468.50
2022-12-03T17:01:52.084Z,101457.13
2022-12-03T17:11:53.591Z,101467.88
2022-12-03T17:21:54.951Z,101467.84
2022-12-03T17:31:56.342Z,101454.94
2022-12-03T17:41:57.777Z,101451.28
2022-12-03T17:51:59.308Z,101445.41
2022-12-03T18:02:00.727Z,101447.22
2022-12-03T18:12:02.074Z,101431.78
2022-12-03T18:22:03.464Z,101437.09
2022-12-03T18:32:25.791Z,101439.22
2022-12-03T18:42:29.426Z,101423.25
2022-12-03T18:52:30.787Z,101421.38
2022-12-03T19:03:01.051Z,101422.91
2022-12-03T19:12:53.415Z,101419.56
2022-12-03T19:22:54.735Z,101418.75
2022-12-03T19:32:56.117Z,101416.13
2022-12-03T19:42:57.435Z,101416.94
2022-12-03T19:52:58.779Z,101407.41
2022-12-03T20:03:00.272Z,101410.75
2022-12-03T20:13:01.978Z,101404.78
2022-12-03T20:23:03.389Z,101413.97
2022-12-03T20:33:04.776Z,101408.94
2022-12-03T20:43:06.086Z,101401.03
2022-12-03T20:53:24.292Z,101393.50
2022-12-03T21:03:26.648Z,101392.66
2022-12-03T21:13:32.308Z,101391.41
2022-12-03T21:23:35.015Z,101384.69
2022-12-03T21:33:37.066Z,101380.47
2022-12-03T21:43:38.477Z,101378.81
2022-12-03T21:53:43.595Z,101395.56
2022-12-03T22:03:45.730Z,101381.16
2022-12-03T22:13:47.742Z,101374.22
2022-12-03T22:23:49.678Z,101355.81
2022-12-03T22:33:51.457Z,101359.94
2022-12-03T22:43:52.916Z,101354.00
2022-12-03T22:53:55.664Z,101347.88
2022-12-03T23:03:57.482Z,101343.38
2022-12-03T23:13:59.122Z,101336.47
2022-12-03T23:24:02.611Z,101340.75
2022-12-03T23:34:04.189Z,101332.25
2022-12-03T23:44:05.636Z,101326.41
2022-12-03T23:54:07.103Z,101318.66
